sensor_id;sensor_type;location;lat;lon;timestamp;P1;durP1;ratioP1;P2;durP2;ratioP2
13032;SDS011;6583;42.632;23.298;2023-05-20T00:00:48;9.57;;;7.50;;
13032;SDS011;6583;42.632;23.298;2023-05-20T00:03:15;8.53;;;7.30;;
13032;SDS011;6583;42.632;23.298;2023-05-20T00:05:42;8.53;;;7.43;;
13032;SDS011;6583;42.632;23.298;2023-05-20T00:08:10;8.33;;;7.27;;
13032;SDS011;6583;42.632;23.298;2023-05-20T00:10:37;13.50;;;7.47;;
13032;SDS011;6583;42.632;23.298;2023-05-20T00:13:04;8.33;;;7.33;;
13032;SDS011;6583;42.632;23.298;2023-05-20T00:15:31;11.43;;;7.27;;
13032;SDS011;6583;42.632;23.298;2023-05-20T00:17:59;10.90;;;8.00;;
13032;SDS011;6583;42.632;23.298;2023-05-20T00:20:26;10.33;;;8.10;;
13032;SDS011;6583;42.632;23.298;2023-05-20T00:22:53;7.90;;;7.17;;
13032;SDS011;6583;42.632;23.298;2023-05-20T00:25:21;10.47;;;7.50;;
13032;SDS011;6583;42.632;23.298;2023-05-20T00:27:48;11.60;;;8.20;;
13032;SDS011;6583;42.632;23.298;2023-05-20T00:30:14;8.33;;;7.53;;
13032;SDS011;6583;42.632;23.298;2023-05-20T00:32:41;9.87;;;8.00;;
13032;SDS011;6583;42.632;23.298;2023-05-20T00:35:08;9.40;;;7.87;;
13032;SDS011;6583;42.632;23.298;2023-05-20T00:37:35;8.10;;;7.27;;
13032;SDS011;6583;42.632;23.298;2023-05-20T00:40:05;8.77;;;7.40;;
13032;SDS011;6583;42.632;23.298;2023-05-20T00:42:34;10.57;;;7.83;;
13032;SDS011;6583;42.632;23.298;2023-05-20T00:45:01;8.53;;;7.63;;
13032;SDS011;6583;42.632;23.298;2023-05-20T00:47:28;9.37;;;7.93;;
13032;SDS011;6583;42.632;23.298;2023-05-20T00:49:57;9.13;;;7.73;;
13032;SDS011;6583;42.632;23.298;2023-05-20T00:52:25;9.10;;;7.47;;
13032;SDS011;6583;42.632;23.298;2023-05-20T00:54:54;8.60;;;7.70;;
13032;SDS011;6583;42.632;23.298;2023-05-20T00:57:22;11.13;;;7.80;;
13032;SDS011;6583;42.632;23.298;2023-05-20T00:59:51;10.80;;;8.30;;
13032;SDS011;6583;42.632;23.298;2023-05-20T01:02:18;9.57;;;7.93;;
13032;SDS011;6583;42.632;23.298;2023-05-20T01:04:44;10.37;;;8.10;;
13032;SDS011;6583;42.632;23.298;2023-05-20T01:07:12;9.10;;;8.00;;
13032;SDS011;6583;42.632;23.298;2023-05-20T01:09:40;12.37;;;8.23;;
13032;SDS011;6583;42.632;23.298;2023-05-20T01:12:09;10.20;;;7.83;;
13032;SDS011;6583;42.632;23.298;2023-05-20T01:14:41;10.13;;;8.47;;
13032;SDS011;6583;42.632;23.298;2023-05-20T01:17:13;9.50;;;8.50;;
13032;SDS011;6583;42.632;23.298;2023-05-20T01:19:42;9.33;;;7.90;;
13032;SDS011;6583;42.632;23.298;2023-05-20T01:22:10;13.00;;;8.93;;
13032;SDS011;6583;42.632;23.298;2023-05-20T01:24:40;10.80;;;8.93;;
13032;SDS011;6583;42.632;23.298;2023-05-20T01:27:08;12.03;;;8.80;;
13032;SDS011;6583;42.632;23.298;2023-05-20T01:29:36;11.43;;;8.27;;
13032;SDS011;6583;42.632;23.298;2023-05-20T01:32:04;10.47;;;7.87;;
13032;SDS011;6583;42.632;23.298;2023-05-20T01:34:32;8.87;;;7.97;;
13032;SDS011;6583;42.632;23.298;2023-05-20T01:37:01;11.07;;;8.60;;
13032;SDS011;6583;42.632;23.298;2023-05-20T01:39:29;8.93;;;7.43;;
13032;SDS011;6583;42.632;23.298;2023-05-20T01:41:58;8.37;;;7.40;;
13032;SDS011;6583;42.632;23.298;2023-05-20T01:44:27;10.27;;;7.73;;
13032;SDS011;6583;42.632;23.298;2023-05-20T01:46:53;10.70;;;8.00;;
13032;SDS011;6583;42.632;23.298;2023-05-20T01:49:20;9.47;;;7.53;;
13032;SDS011;6583;42.632;23.298;2023-05-20T01:51:47;9.10;;;7.43;;
13032;SDS011;6583;42.632;23.298;2023-05-20T01:54:13;11.77;;;7.57;;
13032;SDS011;6583;42.632;23.298;2023-05-20T01:56:40;8.80;;;7.27;;
13032;SDS011;6583;42.632;23.298;2023-05-20T01:59:08;12.03;;;7.60;;
13032;SDS011;6583;42.632;23.298;2023-05-20T02:01:35;8.20;;;7.20;;
13032;SDS011;6583;42.632;23.298;2023-05-20T02:04:01;9.07;;;7.70;;
13032;SDS011;6583;42.632;23.298;2023-05-20T02:06:28;11.00;;;8.57;;
13032;SDS011;6583;42.632;23.298;2023-05-20T02:08:55;9.37;;;8.20;;
13032;SDS011;6583;42.632;23.298;2023-05-20T02:11:21;10.13;;;8.23;;
13032;SDS011;6583;42.632;23.298;2023-05-20T02:13:48;9.47;;;8.03;;
13032;SDS011;6583;42.632;23.298;2023-05-20T02:16:16;13.07;;;8.33;;
13032;SDS011;6583;42.632;23.298;2023-05-20T02:18:43;10.00;;;8.30;;
13032;SDS011;6583;42.632;23.298;2023-05-20T02:21:09;11.23;;;7.73;;
13032;SDS011;6583;42.632;23.298;2023-05-20T02:23:36;10.70;;;7.90;;
13032;SDS011;6583;42.632;23.298;2023-05-20T02:26:03;9.13;;;7.63;;
13032;SDS011;6583;42.632;23.298;2023-05-20T02:28:30;8.93;;;7.90;;
13032;SDS011;6583;42.632;23.298;2023-05-20T02:30:56;9.93;;;7.93;;
13032;SDS011;6583;42.632;23.298;2023-05-20T02:33:24;10.37;;;7.83;;
13032;SDS011;6583;42.632;23.298;2023-05-20T02:35:53;8.90;;;7.77;;
13032;SDS011;6583;42.632;23.298;2023-05-20T02:38:19;10.83;;;8.40;;
13032;SDS011;6583;42.632;23.298;2023-05-20T02:40:46;10.70;;;8.10;;
13032;SDS011;6583;42.632;23.298;2023-05-20T02:43:12;8.93;;;7.90;;
13032;SDS011;6583;42.632;23.298;2023-05-20T02:45:39;10.13;;;8.07;;
13032;SDS011;6583;42.632;23.298;2023-05-20T02:48:06;10.37;;;8.27;;
13032;SDS011;6583;42.632;23.298;2023-05-20T02:50:34;9.00;;;8.10;;
13032;SDS011;6583;42.632;23.298;2023-05-20T02:53:04;8.73;;;7.60;;
13032;SDS011;6583;42.632;23.298;2023-05-20T02:55:32;9.97;;;7.90;;
13032;SDS011;6583;42.632;23.298;2023-05-20T02:57:59;8.97;;;7.70;;
13032;SDS011;6583;42.632;23.298;2023-05-20T03:00:26;11.77;;;8.27;;
13032;SDS011;6583;42.632;23.298;2023-05-20T03:02:54;9.90;;;7.83;;
13032;SDS011;6583;42.632;23.298;2023-05-20T03:05:21;9.43;;;8.40;;
13032;SDS011;6583;42.632;23.298;2023-05-20T03:07:49;18.20;;;8.17;;
13032;SDS011;6583;42.632;23.298;2023-05-20T03:10:15;13.77;;;7.80;;
13032;SDS011;6583;42.632;23.298;2023-05-20T03:12:42;12.93;;;7.90;;
13032;SDS011;6583;42.632;23.298;2023-05-20T03:15:09;9.50;;;7.70;;
13032;SDS011;6583;42.632;23.298;2023-05-20T03:17:36;11.30;;;8.13;;
13032;SDS011;6583;42.632;23.298;2023-05-20T03:20:03;9.50;;;7.77;;
13032;SDS011;6583;42.632;23.298;2023-05-20T03:22:32;9.17;;;7.83;;
13032;SDS011;6583;42.632;23.298;2023-05-20T03:25:00;12.17;;;7.90;;
13032;SDS011;6583;42.632;23.298;2023-05-20T03:27:26;8.93;;;7.47;;
13032;SDS011;6583;42.632;23.298;2023-05-20T03:29:53;10.43;;;7.63;;
13032;SDS011;6583;42.632;23.298;2023-05-20T03:32:20;8.97;;;7.87;;
13032;SDS011;6583;42.632;23.298;2023-05-20T03:34:46;10.97;;;7.70;;
13032;SDS011;6583;42.632;23.298;2023-05-20T03:37:14;11.57;;;7.77;;
13032;SDS011;6583;42.632;23.298;2023-05-20T03:39:40;9.53;;;7.77;;
13032;SDS011;6583;42.632;23.298;2023-05-20T03:42:08;9.97;;;8.20;;
13032;SDS011;6583;42.632;23.298;2023-05-20T03:44:35;12.87;;;10.60;;
13032;SDS011;6583;42.632;23.298;2023-05-20T03:47:02;14.40;;;12.90;;
13032;SDS011;6583;42.632;23.298;2023-05-20T03:49:28;17.60;;;14.27;;
13032;SDS011;6583;42.632;23.298;2023-05-20T03:51:55;10.93;;;9.63;;
13032;SDS011;6583;42.632;23.298;2023-05-20T03:54:22;15.37;;;12.77;;
13032;SDS011;6583;42.632;23.298;2023-05-20T03:56:48;13.07;;;10.40;;
13032;SDS011;6583;42.632;23.298;2023-05-20T03:59:17;10.93;;;9.30;;
13032;SDS011;6583;42.632;23.298;2023-05-20T04:01:44;9.90;;;8.73;;
13032;SDS011;6583;42.632;23.298;2023-05-20T04:04:10;9.70;;;8.70;;
13032;SDS011;6583;42.632;23.298;2023-05-20T04:06:37;11.57;;;8.77;;
13032;SDS011;6583;42.632;23.298;2023-05-20T04:09:04;12.23;;;8.97;;
13032;SDS011;6583;42.632;23.298;2023-05-20T04:11:31;10.70;;;8.67;;
13032;SDS011;6583;42.632;23.298;2023-05-20T04:13:57;10.70;;;8.70;;
13032;SDS011;6583;42.632;23.298;2023-05-20T04:16:25;11.87;;;8.97;;
13032;SDS011;6583;42.632;23.298;2023-05-20T04:18:53;11.57;;;8.50;;
13032;SDS011;6583;42.632;23.298;2023-05-20T04:21:20;10.73;;;8.90;;
13032;SDS011;6583;42.632;23.298;2023-05-20T04:23:47;10.90;;;9.20;;
13032;SDS011;6583;42.632;23.298;2023-05-20T04:26:13;10.80;;;9.70;;
13032;SDS011;6583;42.632;23.298;2023-05-20T04:28:40;10.17;;;9.17;;
13032;SDS011;6583;42.632;23.298;2023-05-20T04:31:07;12.10;;;9.43;;
13032;SDS011;6583;42.632;23.298;2023-05-20T04:33:36;15.77;;;10.37;;
13032;SDS011;6583;42.632;23.298;2023-05-20T04:36:03;12.83;;;10.90;;
13032;SDS011;6583;42.632;23.298;2023-05-20T04:38:31;11.63;;;10.30;;
13032;SDS011;6583;42.632;23.298;2023-05-20T04:40:58;14.83;;;10.53;;
13032;SDS011;6583;42.632;23.298;2023-05-20T04:43:25;13.73;;;10.60;;
13032;SDS011;6583;42.632;23.298;2023-05-20T04:45:53;12.40;;;10.30;;
13032;SDS011;6583;42.632;23.298;2023-05-20T04:48:20;14.07;;;11.17;;
13032;SDS011;6583;42.632;23.298;2023-05-20T04:50:49;13.10;;;10.30;;
13032;SDS011;6583;42.632;23.298;2023-05-20T04:53:16;12.87;;;10.90;;
13032;SDS011;6583;42.632;23.298;2023-05-20T04:55:43;13.13;;;10.40;;
13032;SDS011;6583;42.632;23.298;2023-05-20T04:58:11;11.33;;;10.07;;
13032;SDS011;6583;42.632;23.298;2023-05-20T05:00:39;13.57;;;10.03;;
13032;SDS011;6583;42.632;23.298;2023-05-20T05:03:07;10.67;;;9.03;;
13032;SDS011;6583;42.632;23.298;2023-05-20T05:05:33;10.33;;;8.90;;
13032;SDS011;6583;42.632;23.298;2023-05-20T05:08:02;9.70;;;8.70;;
13032;SDS011;6583;42.632;23.298;2023-05-20T05:10:29;9.80;;;8.10;;
13032;SDS011;6583;42.632;23.298;2023-05-20T05:12:56;10.47;;;8.63;;
13032;SDS011;6583;42.632;23.298;2023-05-20T05:15:22;12.90;;;9.30;;
13032;SDS011;6583;42.632;23.298;2023-05-20T05:17:49;10.68;;;9.30;;
13032;SDS011;6583;42.632;23.298;2023-05-20T05:20:16;10.82;;;8.95;;
13032;SDS011;6583;42.632;23.298;2023-05-20T05:22:43;9.40;;;8.50;;
13032;SDS011;6583;42.632;23.298;2023-05-20T05:25:12;10.50;;;9.35;;
13032;SDS011;6583;42.632;23.298;2023-05-20T05:27:38;13.20;;;9.00;;
13032;SDS011;6583;42.632;23.298;2023-05-20T05:30:05;10.27;;;8.98;;
13032;SDS011;6583;42.632;23.298;2023-05-20T05:32:33;10.02;;;8.45;;
13032;SDS011;6583;42.632;23.298;2023-05-20T05:35:00;9.60;;;7.60;;
13032;SDS011;6583;42.632;23.298;2023-05-20T05:37:26;8.10;;;6.82;;
13032;SDS011;6583;42.632;23.298;2023-05-20T05:39:53;9.70;;;7.50;;
13032;SDS011;6583;42.632;23.298;2023-05-20T05:42:21;8.60;;;6.35;;
13032;SDS011;6583;42.632;23.298;2023-05-20T05:44:48;8.02;;;7.10;;
13032;SDS011;6583;42.632;23.298;2023-05-20T05:47:16;7.55;;;6.75;;
13032;SDS011;6583;42.632;23.298;2023-05-20T05:49:42;9.48;;;7.25;;
13032;SDS011;6583;42.632;23.298;2023-05-20T05:52:09;7.32;;;6.30;;
13032;SDS011;6583;42.632;23.298;2023-05-20T05:54:35;6.57;;;5.72;;
13032;SDS011;6583;42.632;23.298;2023-05-20T05:57:02;7.85;;;6.43;;
13032;SDS011;6583;42.632;23.298;2023-05-20T05:59:30;6.88;;;6.20;;
13032;SDS011;6583;42.632;23.298;2023-05-20T06:01:57;7.95;;;6.55;;
13032;SDS011;6583;42.632;23.298;2023-05-20T06:04:24;7.45;;;6.55;;
13032;SDS011;6583;42.632;23.298;2023-05-20T06:06:50;8.38;;;7.07;;
13032;SDS011;6583;42.632;23.298;2023-05-20T06:09:17;9.07;;;6.82;;
13032;SDS011;6583;42.632;23.298;2023-05-20T06:11:44;8.00;;;6.80;;
13032;SDS011;6583;42.632;23.298;2023-05-20T06:14:10;8.27;;;6.38;;
13032;SDS011;6583;42.632;23.298;2023-05-20T06:16:38;8.00;;;6.50;;
13032;SDS011;6583;42.632;23.298;2023-05-20T06:19:05;8.88;;;6.90;;
13032;SDS011;6583;42.632;23.298;2023-05-20T06:21:33;7.00;;;6.10;;
13032;SDS011;6583;42.632;23.298;2023-05-20T06:24:00;8.13;;;6.28;;
13032;SDS011;6583;42.632;23.298;2023-05-20T06:26:27;7.13;;;5.95;;
13032;SDS011;6583;42.632;23.298;2023-05-20T06:28:54;8.90;;;6.57;;
13032;SDS011;6583;42.632;23.298;2023-05-20T06:31:21;7.65;;;6.20;;
13032;SDS011;6583;42.632;23.298;2023-05-20T06:33:49;7.90;;;6.72;;
13032;SDS011;6583;42.632;23.298;2023-05-20T06:36:16;7.72;;;6.40;;
13032;SDS011;6583;42.632;23.298;2023-05-20T06:38:43;8.63;;;6.38;;
13032;SDS011;6583;42.632;23.298;2023-05-20T06:41:09;9.30;;;6.50;;
13032;SDS011;6583;42.632;23.298;2023-05-20T06:43:36;7.78;;;6.20;;
13032;SDS011;6583;42.632;23.298;2023-05-20T06:46:04;9.10;;;6.55;;
13032;SDS011;6583;42.632;23.298;2023-05-20T06:48:31;7.03;;;6.22;;
13032;SDS011;6583;42.632;23.298;2023-05-20T06:50:59;7.15;;;6.45;;
13032;SDS011;6583;42.632;23.298;2023-05-20T06:53:25;7.32;;;6.43;;
13032;SDS011;6583;42.632;23.298;2023-05-20T06:55:52;7.18;;;6.47;;
13032;SDS011;6583;42.632;23.298;2023-05-20T06:58:20;6.97;;;6.28;;
13032;SDS011;6583;42.632;23.298;2023-05-20T07:00:47;7.53;;;6.80;;
13032;SDS011;6583;42.632;23.298;2023-05-20T07:03:14;7.85;;;6.32;;
13032;SDS011;6583;42.632;23.298;2023-05-20T07:05:40;8.43;;;6.70;;
13032;SDS011;6583;42.632;23.298;2023-05-20T07:08:08;7.80;;;7.07;;
13032;SDS011;6583;42.632;23.298;2023-05-20T07:10:35;7.57;;;6.43;;
13032;SDS011;6583;42.632;23.298;2023-05-20T07:13:02;7.32;;;6.65;;
13032;SDS011;6583;42.632;23.298;2023-05-20T07:15:29;7.32;;;6.22;;
13032;SDS011;6583;42.632;23.298;2023-05-20T07:17:55;8.25;;;6.82;;
13032;SDS011;6583;42.632;23.298;2023-05-20T07:20:23;8.95;;;6.78;;
13032;SDS011;6583;42.632;23.298;2023-05-20T07:22:50;7.97;;;6.60;;
13032;SDS011;6583;42.632;23.298;2023-05-20T07:25:18;7.38;;;6.68;;
13032;SDS011;6583;42.632;23.298;2023-05-20T07:27:44;9.73;;;6.88;;
13032;SDS011;6583;42.632;23.298;2023-05-20T07:30:11;10.35;;;6.75;;
13032;SDS011;6583;42.632;23.298;2023-05-20T07:32:38;9.20;;;6.45;;
13032;SDS011;6583;42.632;23.298;2023-05-20T07:35:05;7.80;;;6.85;;
13032;SDS011;6583;42.632;23.298;2023-05-20T07:37:32;8.93;;;7.03;;
13032;SDS011;6583;42.632;23.298;2023-05-20T07:39:58;10.80;;;6.97;;
13032;SDS011;6583;42.632;23.298;2023-05-20T07:42:27;8.80;;;6.65;;
13032;SDS011;6583;42.632;23.298;2023-05-20T07:44:53;9.25;;;6.63;;
13032;SDS011;6583;42.632;23.298;2023-05-20T07:47:20;7.80;;;7.00;;
13032;SDS011;6583;42.632;23.298;2023-05-20T07:49:47;7.47;;;6.55;;
13032;SDS011;6583;42.632;23.298;2023-05-20T07:52:13;7.40;;;6.18;;
13032;SDS011;6583;42.632;23.298;2023-05-20T07:54:40;6.93;;;6.03;;
13032;SDS011;6583;42.632;23.298;2023-05-20T07:57:06;7.68;;;6.50;;
13032;SDS011;6583;42.632;23.298;2023-05-20T07:59:34;8.25;;;6.60;;
13032;SDS011;6583;42.632;23.298;2023-05-20T08:02:01;8.18;;;6.70;;
13032;SDS011;6583;42.632;23.298;2023-05-20T08:04:28;7.60;;;6.32;;
13032;SDS011;6583;42.632;23.298;2023-05-20T08:06:54;7.30;;;6.60;;
13032;SDS011;6583;42.632;23.298;2023-05-20T08:09:21;7.60;;;6.70;;
13032;SDS011;6583;42.632;23.298;2023-05-20T08:11:48;8.25;;;6.50;;
13032;SDS011;6583;42.632;23.298;2023-05-20T08:14:14;7.35;;;6.35;;
13032;SDS011;6583;42.632;23.298;2023-05-20T08:16:42;7.53;;;6.55;;
13032;SDS011;6583;42.632;23.298;2023-05-20T08:19:09;8.88;;;7.53;;
13032;SDS011;6583;42.632;23.298;2023-05-20T08:21:36;7.93;;;7.13;;
13032;SDS011;6583;42.632;23.298;2023-05-20T08:24:03;8.45;;;7.35;;
13032;SDS011;6583;42.632;23.298;2023-05-20T08:26:30;9.85;;;7.20;;
13032;SDS011;6583;42.632;23.298;2023-05-20T08:28:57;7.43;;;6.68;;
13032;SDS011;6583;42.632;23.298;2023-05-20T08:31:24;7.80;;;7.07;;
13032;SDS011;6583;42.632;23.298;2023-05-20T08:33:52;7.43;;;6.72;;
13032;SDS011;6583;42.632;23.298;2023-05-20T08:36:18;10.45;;;7.68;;
13032;SDS011;6583;42.632;23.298;2023-05-20T08:38:45;9.43;;;7.20;;
13032;SDS011;6583;42.632;23.298;2023-05-20T08:41:12;8.63;;;7.38;;
13032;SDS011;6583;42.632;23.298;2023-05-20T08:43:39;7.78;;;7.07;;
13032;SDS011;6583;42.632;23.298;2023-05-20T08:46:06;8.27;;;7.47;;
13032;SDS011;6583;42.632;23.298;2023-05-20T08:48:33;8.38;;;7.45;;
13032;SDS011;6583;42.632;23.298;2023-05-20T08:51:02;8.40;;;7.60;;
13032;SDS011;6583;42.632;23.298;2023-05-20T08:53:29;8.30;;;7.50;;
13032;SDS011;6583;42.632;23.298;2023-05-20T08:55:56;9.68;;;7.82;;
13032;SDS011;6583;42.632;23.298;2023-05-20T08:58:27;9.20;;;7.25;;
13032;SDS011;6583;42.632;23.298;2023-05-20T09:00:53;8.00;;;7.28;;
13032;SDS011;6583;42.632;23.298;2023-05-20T09:03:20;8.75;;;7.13;;
13032;SDS011;6583;42.632;23.298;2023-05-20T09:05:48;8.68;;;7.78;;
13032;SDS011;6583;42.632;23.298;2023-05-20T09:08:16;7.88;;;7.07;;
13032;SDS011;6583;42.632;23.298;2023-05-20T09:10:43;10.10;;;8.18;;
13032;SDS011;6583;42.632;23.298;2023-05-20T09:13:09;8.27;;;7.40;;
13032;SDS011;6583;42.632;23.298;2023-05-20T09:15:36;8.63;;;7.50;;
13032;SDS011;6583;42.632;23.298;2023-05-20T09:18:04;8.68;;;7.88;;
13032;SDS011;6583;42.632;23.298;2023-05-20T09:20:33;10.30;;;8.35;;
13032;SDS011;6583;42.632;23.298;2023-05-20T09:23:01;8.50;;;7.63;;
13032;SDS011;6583;42.632;23.298;2023-05-20T09:25:31;9.50;;;8.50;;
13032;SDS011;6583;42.632;23.298;2023-05-20T09:27:58;8.68;;;7.47;;
13032;SDS011;6583;42.632;23.298;2023-05-20T09:30:25;8.52;;;7.63;;
13032;SDS011;6583;42.632;23.298;2023-05-20T09:32:52;9.13;;;7.80;;
13032;SDS011;6583;42.632;23.298;2023-05-20T09:35:20;10.30;;;8.15;;
13032;SDS011;6583;42.632;23.298;2023-05-20T09:37:47;8.40;;;7.43;;
13032;SDS011;6583;42.632;23.298;2023-05-20T09:40:16;9.90;;;8.02;;
13032;SDS011;6583;42.632;23.298;2023-05-20T09:42:49;8.35;;;7.53;;
13032;SDS011;6583;42.632;23.298;2023-05-20T09:45:19;8.13;;;6.97;;
13032;SDS011;6583;42.632;23.298;2023-05-20T09:47:47;8.20;;;7.40;;
13032;SDS011;6583;42.632;23.298;2023-05-20T09:50:16;11.27;;;8.13;;
13032;SDS011;6583;42.632;23.298;2023-05-20T09:52:45;8.57;;;7.57;;
13032;SDS011;6583;42.632;23.298;2023-05-20T09:55:13;9.02;;;6.90;;
13032;SDS011;6583;42.632;23.298;2023-05-20T09:57:40;10.23;;;7.43;;
13032;SDS011;6583;42.632;23.298;2023-05-20T10:00:09;9.20;;;7.30;;
13032;SDS011;6583;42.632;23.298;2023-05-20T10:02:37;7.85;;;7.00;;
13032;SDS011;6583;42.632;23.298;2023-05-20T10:05:09;8.38;;;7.28;;
13032;SDS011;6583;42.632;23.298;2023-05-20T10:10:45;8.63;;;7.72;;
13032;SDS011;6583;42.632;23.298;2023-05-20T10:13:18;9.10;;;7.82;;
13032;SDS011;6583;42.632;23.298;2023-05-20T10:16:12;9.38;;;7.80;;
13032;SDS011;6583;42.632;23.298;2023-05-20T10:18:53;9.30;;;7.00;;
13032;SDS011;6583;42.632;23.298;2023-05-20T10:21:26;8.10;;;7.25;;
13032;SDS011;6583;42.632;23.298;2023-05-20T10:23:52;7.88;;;7.07;;
13032;SDS011;6583;42.632;23.298;2023-05-20T10:26:19;7.43;;;6.72;;
13032;SDS011;6583;42.632;23.298;2023-05-20T10:28:46;7.50;;;6.40;;
13032;SDS011;6583;42.632;23.298;2023-05-20T10:31:19;9.95;;;6.93;;
13032;SDS011;6583;42.632;23.298;2023-05-20T10:33:47;8.02;;;7.25;;
13032;SDS011;6583;42.632;23.298;2023-05-20T10:36:24;10.52;;;6.53;;
13032;SDS011;6583;42.632;23.298;2023-05-20T10:38:52;7.28;;;6.57;;
13032;SDS011;6583;42.632;23.298;2023-05-20T10:41:19;7.97;;;6.45;;
13032;SDS011;6583;42.632;23.298;2023-05-20T10:43:47;7.13;;;5.45;;
13032;SDS011;6583;42.632;23.298;2023-05-20T10:46:26;8.50;;;6.47;;
13032;SDS011;6583;42.632;23.298;2023-05-20T10:48:52;7.85;;;5.75;;
13032;SDS011;6583;42.632;23.298;2023-05-20T10:51:19;6.10;;;5.53;;
13032;SDS011;6583;42.632;23.298;2023-05-20T10:53:46;6.57;;;5.97;;
13032;SDS011;6583;42.632;23.298;2023-05-20T10:56:16;8.30;;;5.20;;
13032;SDS011;6583;42.632;23.298;2023-05-20T10:58:43;5.88;;;5.03;;
13032;SDS011;6583;42.632;23.298;2023-05-20T11:01:10;7.40;;;5.28;;
13032;SDS011;6583;42.632;23.298;2023-05-20T11:03:39;9.52;;;6.18;;
13032;SDS011;6583;42.632;23.298;2023-05-20T11:06:10;6.45;;;5.20;;
13032;SDS011;6583;42.632;23.298;2023-05-20T11:08:37;6.57;;;5.70;;
13032;SDS011;6583;42.632;23.298;2023-05-20T11:11:04;7.68;;;5.57;;
13032;SDS011;6583;42.632;23.298;2023-05-20T11:13:31;6.70;;;5.88;;
13032;SDS011;6583;42.632;23.298;2023-05-20T11:15:59;7.05;;;6.38;;
13032;SDS011;6583;42.632;23.298;2023-05-20T11:18:27;8.75;;;5.93;;
13032;SDS011;6583;42.632;23.298;2023-05-20T11:20:57;6.57;;;5.97;;
13032;SDS011;6583;42.632;23.298;2023-05-20T11:23:24;8.55;;;6.50;;
13032;SDS011;6583;42.632;23.298;2023-05-20T11:25:52;6.90;;;5.70;;
13032;SDS011;6583;42.632;23.298;2023-05-20T11:28:20;8.75;;;6.03;;
13032;SDS011;6583;42.632;23.298;2023-05-20T11:30:48;7.05;;;6.35;;
13032;SDS011;6583;42.632;23.298;2023-05-20T11:33:15;6.97;;;5.88;;
13032;SDS011;6583;42.632;23.298;2023-05-20T11:35:43;7.05;;;5.90;;
13032;SDS011;6583;42.632;23.298;2023-05-20T11:38:13;6.63;;;5.55;;
13032;SDS011;6583;42.632;23.298;2023-05-20T11:40:41;7.50;;;5.88;;
13032;SDS011;6583;42.632;23.298;2023-05-20T11:43:09;6.35;;;5.68;;
13032;SDS011;6583;42.632;23.298;2023-05-20T11:45:38;6.95;;;6.00;;
13032;SDS011;6583;42.632;23.298;2023-05-20T11:48:06;6.43;;;5.82;;
13032;SDS011;6583;42.632;23.298;2023-05-20T11:50:33;7.90;;;5.95;;
13032;SDS011;6583;42.632;23.298;2023-05-20T11:53:03;13.75;;;6.90;;
13032;SDS011;6583;42.632;23.298;2023-05-20T11:55:32;7.10;;;6.40;;
13032;SDS011;6583;42.632;23.298;2023-05-20T11:57:59;7.93;;;6.47;;
13032;SDS011;6583;42.632;23.298;2023-05-20T12:00:28;7.72;;;6.50;;
13032;SDS011;6583;42.632;23.298;2023-05-20T12:02:54;6.68;;;5.93;;
13032;SDS011;6583;42.632;23.298;2023-05-20T12:05:21;6.75;;;5.50;;
13032;SDS011;6583;42.632;23.298;2023-05-20T12:07:48;6.60;;;5.85;;
13032;SDS011;6583;42.632;23.298;2023-05-20T12:10:15;6.93;;;6.00;;
13032;SDS011;6583;42.632;23.298;2023-05-20T12:12:43;8.68;;;5.85;;
13032;SDS011;6583;42.632;23.298;2023-05-20T12:15:10;8.93;;;5.93;;
13032;SDS011;6583;42.632;23.298;2023-05-20T12:17:44;6.53;;;5.60;;
13032;SDS011;6583;42.632;23.298;2023-05-20T12:20:13;6.72;;;5.90;;
13032;SDS011;6583;42.632;23.298;2023-05-20T12:22:41;6.68;;;5.97;;
13032;SDS011;6583;42.632;23.298;2023-05-20T12:25:09;6.90;;;6.20;;
13032;SDS011;6583;42.632;23.298;2023-05-20T12:27:37;8.15;;;5.80;;
13032;SDS011;6583;42.632;23.298;2023-05-20T12:30:06;9.05;;;6.07;;
13032;SDS011;6583;42.632;23.298;2023-05-20T12:32:35;8.07;;;5.90;;
13032;SDS011;6583;42.632;23.298;2023-05-20T12:35:01;6.82;;;5.15;;
13032;SDS011;6583;42.632;23.298;2023-05-20T12:37:29;6.30;;;4.72;;
13032;SDS011;6583;42.632;23.298;2023-05-20T12:39:55;5.78;;;4.97;;
13032;SDS011;6583;42.632;23.298;2023-05-20T12:42:22;7.20;;;5.07;;
13032;SDS011;6583;42.632;23.298;2023-05-20T12:44:49;5.63;;;5.13;;
13032;SDS011;6583;42.632;23.298;2023-05-20T12:47:18;5.95;;;4.50;;
13032;SDS011;6583;42.632;23.298;2023-05-20T12:49:45;6.53;;;4.65;;
13032;SDS011;6583;42.632;23.298;2023-05-20T12:52:12;4.80;;;4.30;;
13032;SDS011;6583;42.632;23.298;2023-05-20T12:54:39;5.18;;;4.68;;
13032;SDS011;6583;42.632;23.298;2023-05-20T12:57:05;6.80;;;5.20;;
13032;SDS011;6583;42.632;23.298;2023-05-20T12:59:32;7.00;;;5.68;;
13032;SDS011;6583;42.632;23.298;2023-05-20T13:01:59;5.55;;;5.05;;
13032;SDS011;6583;42.632;23.298;2023-05-20T13:04:27;10.77;;;5.78;;
13032;SDS011;6583;42.632;23.298;2023-05-20T13:06:54;5.93;;;5.32;;
13032;SDS011;6583;42.632;23.298;2023-05-20T13:09:21;5.38;;;4.88;;
13032;SDS011;6583;42.632;23.298;2023-05-20T13:11:48;7.00;;;4.93;;
13032;SDS011;6583;42.632;23.298;2023-05-20T13:14:14;6.05;;;4.97;;
13032;SDS011;6583;42.632;23.298;2023-05-20T13:16:41;5.43;;;4.80;;
13032;SDS011;6583;42.632;23.298;2023-05-20T13:19:08;5.43;;;4.93;;
13032;SDS011;6583;42.632;23.298;2023-05-20T13:21:36;7.18;;;5.00;;
13032;SDS011;6583;42.632;23.298;2023-05-20T13:24:03;5.82;;;5.30;;
13032;SDS011;6583;42.632;23.298;2023-05-20T13:26:30;6.00;;;5.40;;
13032;SDS011;6583;42.632;23.298;2023-05-20T13:28:59;6.15;;;5.10;;
13032;SDS011;6583;42.632;23.298;2023-05-20T13:31:26;5.35;;;4.90;;
13032;SDS011;6583;42.632;23.298;2023-05-20T13:33:53;6.53;;;4.80;;
13032;SDS011;6583;42.632;23.298;2023-05-20T13:36:23;5.15;;;4.65;;
13032;SDS011;6583;42.632;23.298;2023-05-20T13:38:51;5.72;;;4.70;;
13032;SDS011;6583;42.632;23.298;2023-05-20T13:41:18;10.55;;;4.97;;
13032;SDS011;6583;42.632;23.298;2023-05-20T13:43:45;6.60;;;5.13;;
13032;SDS011;6583;42.632;23.298;2023-05-20T13:46:12;5.65;;;5.15;;
13032;SDS011;6583;42.632;23.298;2023-05-20T13:48:41;5.63;;;5.13;;
13032;SDS011;6583;42.632;23.298;2023-05-20T13:51:07;5.50;;;5.00;;
13032;SDS011;6583;42.632;23.298;2023-05-20T13:53:34;5.72;;;4.80;;
13032;SDS011;6583;42.632;23.298;2023-05-20T13:56:02;5.03;;;4.57;;
13032;SDS011;6583;42.632;23.298;2023-05-20T13:58:29;5.80;;;5.13;;
13032;SDS011;6583;42.632;23.298;2023-05-20T14:00:57;4.78;;;4.38;;
13032;SDS011;6583;42.632;23.298;2023-05-20T14:03:24;6.40;;;5.00;;
13032;SDS011;6583;42.632;23.298;2023-05-20T14:05:51;5.28;;;4.78;;
13032;SDS011;6583;42.632;23.298;2023-05-20T14:08:18;5.65;;;5.15;;
13032;SDS011;6583;42.632;23.298;2023-05-20T14:10:45;6.57;;;5.88;;
13032;SDS011;6583;42.632;23.298;2023-05-20T14:13:13;5.50;;;4.80;;
13032;SDS011;6583;42.632;23.298;2023-05-20T14:15:40;5.85;;;5.25;;
13032;SDS011;6583;42.632;23.298;2023-05-20T14:18:07;5.03;;;4.57;;
13032;SDS011;6583;42.632;23.298;2023-05-20T14:20:35;5.82;;;5.32;;
13032;SDS011;6583;42.632;23.298;2023-05-20T14:23:02;7.53;;;6.22;;
13032;SDS011;6583;42.632;23.298;2023-05-20T14:25:28;6.82;;;5.57;;
13032;SDS011;6583;42.632;23.298;2023-05-20T14:27:55;7.50;;;5.80;;
13032;SDS011;6583;42.632;23.298;2023-05-20T14:30:23;7.57;;;6.10;;
13032;SDS011;6583;42.632;23.298;2023-05-20T14:32:50;6.25;;;5.63;;
13032;SDS011;6583;42.632;23.298;2023-05-20T14:35:17;6.60;;;6.00;;
13032;SDS011;6583;42.632;23.298;2023-05-20T14:37:43;6.68;;;5.38;;
13032;SDS011;6583;42.632;23.298;2023-05-20T14:40:10;6.78;;;5.45;;
13032;SDS011;6583;42.632;23.298;2023-05-20T14:42:38;8.00;;;5.88;;
13032;SDS011;6583;42.632;23.298;2023-05-20T14:45:05;8.13;;;6.00;;
13032;SDS011;6583;42.632;23.298;2023-05-20T14:47:34;6.60;;;5.90;;